sensor_id;sensor_type;location;lat;lon;timestamp;temperature;humidity
33414;DHT22;60055;41.884;12.534;2022-08-16T00:00:18;26.50;82.80
33414;DHT22;60055;41.884;12.534;2022-08-16T00:02:45;26.50;82.30
33414;DHT22;60055;41.884;12.534;2022-08-16T00:05:12;26.60;82.40
33414;DHT22;60055;41.884;12.534;2022-08-16T00:07:38;26.50;82.10
33414;DHT22;60055;41.884;12.534;2022-08-16T00:10:07;26.50;83.40
33414;DHT22;60055;41.884;12.534;2022-08-16T00:12:33;26.50;83.20
33414;DHT22;60055;41.884;12.534;2022-08-16T00:15:03;26.50;83.10
33414;DHT22;60055;41.884;12.534;2022-08-16T00:17:29;26.50;83.80
33414;DHT22;60055;41.884;12.534;2022-08-16T00:19:55;26.50;84.00
33414;DHT22;60055;41.884;12.534;2022-08-16T00:22:22;26.40;83.00
33414;DHT22;60055;41.884;12.534;2022-08-16T00:24:47;26.60;81.50
33414;DHT22;60055;41.884;12.534;2022-08-16T00:27:13;26.50;82.10
33414;DHT22;60055;41.884;12.534;2022-08-16T00:29:41;26.40;81.30
33414;DHT22;60055;41.884;12.534;2022-08-16T00:32:07;26.80;76.00
33414;DHT22;60055;41.884;12.534;2022-08-16T00:34:35;26.70;78.50
33414;DHT22;60055;41.884;12.534;2022-08-16T00:37:02;26.30;84.70
33414;DHT22;60055;41.884;12.534;2022-08-16T00:39:27;26.00;87.90
33414;DHT22;60055;41.884;12.534;2022-08-16T00:41:53;25.80;89.90
33414;DHT22;60055;41.884;12.534;2022-08-16T00:44:20;25.70;90.10
33414;DHT22;60055;41.884;12.534;2022-08-16T00:46:57;25.90;90.10
33414;DHT22;60055;41.884;12.534;2022-08-16T00:49:26;25.80;90.30
33414;DHT22;60055;41.884;12.534;2022-08-16T00:51:52;25.70;91.50
33414;DHT22;60055;41.884;12.534;2022-08-16T00:54:20;25.60;92.20
33414;DHT22;60055;41.884;12.534;2022-08-16T00:56:48;25.70;92.60
33414;DHT22;60055;41.884;12.534;2022-08-16T00:59:16;25.70;93.10
33414;DHT22;60055;41.884;12.534;2022-08-16T01:01:44;25.70;92.90
33414;DHT22;60055;41.884;12.534;2022-08-16T01:04:11;25.60;91.90
33414;DHT22;60055;41.884;12.534;2022-08-16T01:06:37;25.70;91.50
33414;DHT22;60055;41.884;12.534;2022-08-16T01:09:05;25.80;90.80
33414;DHT22;60055;41.884;12.534;2022-08-16T01:11:33;25.70;89.10
33414;DHT22;60055;41.884;12.534;2022-08-16T01:16:37;25.60;86.70
33414;DHT22;60055;41.884;12.534;2022-08-16T01:22:02;25.70;85.90
33414;DHT22;60055;41.884;12.534;2022-08-16T01:24:34;25.70;84.50
33414;DHT22;60055;41.884;12.534;2022-08-16T01:27:08;25.70;84.50
33414;DHT22;60055;41.884;12.534;2022-08-16T01:32:12;25.80;83.70
33414;DHT22;60055;41.884;12.534;2022-08-16T01:34:37;25.90;83.60
33414;DHT22;60055;41.884;12.534;2022-08-16T01:37:07;25.90;82.40
33414;DHT22;60055;41.884;12.534;2022-08-16T01:39:34;25.90;81.70
33414;DHT22;60055;41.884;12.534;2022-08-16T01:42:00;25.90;81.60
33414;DHT22;60055;41.884;12.534;2022-08-16T01:44:26;26.00;81.70
33414;DHT22;60055;41.884;12.534;2022-08-16T01:46:52;26.10;81.60
33414;DHT22;60055;41.884;12.534;2022-08-16T01:49:37;26.10;81.10
33414;DHT22;60055;41.884;12.534;2022-08-16T01:52:06;26.10;81.00
33414;DHT22;60055;41.884;12.534;2022-08-16T01:54:33;26.20;80.80
33414;DHT22;60055;41.884;12.534;2022-08-16T01:57:02;26.10;80.80
33414;DHT22;60055;41.884;12.534;2022-08-16T01:59:32;26.10;80.40
33414;DHT22;60055;41.884;12.534;2022-08-16T02:01:58;26.10;80.40
33414;DHT22;60055;41.884;12.534;2022-08-16T02:04:24;26.10;80.50
33414;DHT22;60055;41.884;12.534;2022-08-16T02:06:51;26.20;81.10
33414;DHT22;60055;41.884;12.534;2022-08-16T02:09:18;26.20;80.60
33414;DHT22;60055;41.884;12.534;2022-08-16T02:11:46;26.10;80.70
33414;DHT22;60055;41.884;12.534;2022-08-16T02:14:12;26.10;80.80
33414;DHT22;60055;41.884;12.534;2022-08-16T02:16:38;26.10;81.00
33414;DHT22;60055;41.884;12.534;2022-08-16T02:19:05;26.10;81.10
33414;DHT22;60055;41.884;12.534;2022-08-16T02:21:31;26.10;81.20
33414;DHT22;60055;41.884;12.534;2022-08-16T02:23:57;26.10;81.40
33414;DHT22;60055;41.884;12.534;2022-08-16T02:26:23;26.10;81.60
33414;DHT22;60055;41.884;12.534;2022-08-16T02:28:49;26.20;81.20
33414;DHT22;60055;41.884;12.534;2022-08-16T02:31:15;26.10;81.30
33414;DHT22;60055;41.884;12.534;2022-08-16T02:33:42;26.10;81.70
33414;DHT22;60055;41.884;12.534;2022-08-16T02:36:09;26.10;81.90
33414;DHT22;60055;41.884;12.534;2022-08-16T02:38:35;26.10;82.00
33414;DHT22;60055;41.884;12.534;2022-08-16T02:41:03;26.10;82.20
33414;DHT22;60055;41.884;12.534;2022-08-16T02:43:31;26.10;82.30
33414;DHT22;60055;41.884;12.534;2022-08-16T02:45:58;26.00;82.60
33414;DHT22;60055;41.884;12.534;2022-08-16T02:48:25;26.00;82.70
33414;DHT22;60055;41.884;12.534;2022-08-16T02:50:52;25.90;83.00
33414;DHT22;60055;41.884;12.534;2022-08-16T02:53:18;25.90;83.30
33414;DHT22;60055;41.884;12.534;2022-08-16T02:55:44;25.80;83.40
33414;DHT22;60055;41.884;12.534;2022-08-16T02:58:09;25.80;82.60
33414;DHT22;60055;41.884;12.534;2022-08-16T03:00:36;25.80;82.20
33414;DHT22;60055;41.884;12.534;2022-08-16T03:03:03;25.70;82.00
33414;DHT22;60055;41.884;12.534;2022-08-16T03:05:29;25.80;81.80
33414;DHT22;60055;41.884;12.534;2022-08-16T03:07:55;25.80;81.00
33414;DHT22;60055;41.884;12.534;2022-08-16T03:10:21;25.90;80.70
33414;DHT22;60055;41.884;12.534;2022-08-16T03:12:47;25.80;80.60
33414;DHT22;60055;41.884;12.534;2022-08-16T03:15:15;25.80;80.50
33414;DHT22;60055;41.884;12.534;2022-08-16T03:17:42;25.80;80.00
33414;DHT22;60055;41.884;12.534;2022-08-16T03:20:10;25.80;79.90
33414;DHT22;60055;41.884;12.534;2022-08-16T03:22:36;25.90;79.80
33414;DHT22;60055;41.884;12.534;2022-08-16T03:25:06;26.00;79.80
33414;DHT22;60055;41.884;12.534;2022-08-16T03:27:32;25.90;79.40
33414;DHT22;60055;41.884;12.534;2022-08-16T03:30:12;25.80;79.60
33414;DHT22;60055;41.884;12.534;2022-08-16T03:32:38;25.90;79.50
33414;DHT22;60055;41.884;12.534;2022-08-16T03:35:05;25.90;79.30
33414;DHT22;60055;41.884;12.534;2022-08-16T03:37:30;26.00;79.20
33414;DHT22;60055;41.884;12.534;2022-08-16T03:39:56;26.00;78.50
33414;DHT22;60055;41.884;12.534;2022-08-16T03:42:23;25.90;78.50
33414;DHT22;60055;41.884;12.534;2022-08-16T03:44:49;26.00;78.40
33414;DHT22;60055;41.884;12.534;2022-08-16T03:47:15;25.90;78.50
33414;DHT22;60055;41.884;12.534;2022-08-16T03:49:40;25.90;78.50
33414;DHT22;60055;41.884;12.534;2022-08-16T03:52:06;26.00;78.30
33414;DHT22;60055;41.884;12.534;2022-08-16T03:54:32;25.90;78.30
33414;DHT22;60055;41.884;12.534;2022-08-16T03:57:00;25.90;78.20
33414;DHT22;60055;41.884;12.534;2022-08-16T03:59:25;25.80;78.40
33414;DHT22;60055;41.884;12.534;2022-08-16T04:01:51;25.80;78.50
33414;DHT22;60055;41.884;12.534;2022-08-16T04:04:17;25.80;78.70
33414;DHT22;60055;41.884;12.534;2022-08-16T04:06:42;25.70;78.70
33414;DHT22;60055;41.884;12.534;2022-08-16T04:09:08;25.80;79.00
33414;DHT22;60055;41.884;12.534;2022-08-16T04:11:34;25.80;79.30
33414;DHT22;60055;41.884;12.534;2022-08-16T04:14:00;25.70;79.80
33414;DHT22;60055;41.884;12.534;2022-08-16T04:16:25;25.70;80.20
33414;DHT22;60055;41.884;12.534;2022-08-16T04:18:51;25.60;80.60
33414;DHT22;60055;41.884;12.534;2022-08-16T04:21:17;25.60;81.00
33414;DHT22;60055;41.884;12.534;2022-08-16T04:23:42;25.60;81.20
33414;DHT22;60055;41.884;12.534;2022-08-16T04:26:08;25.50;81.70
33414;DHT22;60055;41.884;12.534;2022-08-16T04:28:34;25.50;81.90
33414;DHT22;60055;41.884;12.534;2022-08-16T04:30:59;25.50;81.90
33414;DHT22;60055;41.884;12.534;2022-08-16T04:33:25;25.60;81.90
33414;DHT22;60055;41.884;12.534;2022-08-16T04:35:53;25.90;82.00
33414;DHT22;60055;41.884;12.534;2022-08-16T04:38:20;25.90;81.40
33414;DHT22;60055;41.884;12.534;2022-08-16T04:40:46;25.90;81.60
33414;DHT22;60055;41.884;12.534;2022-08-16T04:43:12;26.00;82.40
33414;DHT22;60055;41.884;12.534;2022-08-16T04:45:40;25.90;82.70
33414;DHT22;60055;41.884;12.534;2022-08-16T04:48:05;25.90;83.30
33414;DHT22;60055;41.884;12.534;2022-08-16T04:50:34;25.80;83.60
33414;DHT22;60055;41.884;12.534;2022-08-16T04:53:00;25.80;84.10
33414;DHT22;60055;41.884;12.534;2022-08-16T04:55:28;25.80;84.50
33414;DHT22;60055;41.884;12.534;2022-08-16T04:57:54;25.70;84.90
33414;DHT22;60055;41.884;12.534;2022-08-16T05:00:23;25.80;84.70
33414;DHT22;60055;41.884;12.534;2022-08-16T05:02:52;25.90;84.60
33414;DHT22;60055;41.884;12.534;2022-08-16T05:05:19;26.10;84.30
33414;DHT22;60055;41.884;12.534;2022-08-16T05:07:45;26.10;84.30
33414;DHT22;60055;41.884;12.534;2022-08-16T05:10:12;26.10;84.30
33414;DHT22;60055;41.884;12.534;2022-08-16T05:12:37;26.00;84.80
33414;DHT22;60055;41.884;12.534;2022-08-16T05:15:04;25.70;85.80
33414;DHT22;60055;41.884;12.534;2022-08-16T05:17:30;25.80;85.90
33414;DHT22;60055;41.884;12.534;2022-08-16T05:19:56;25.90;85.30
33414;DHT22;60055;41.884;12.534;2022-08-16T05:22:22;25.90;85.30
33414;DHT22;60055;41.884;12.534;2022-08-16T05:24:48;25.90;85.10
33414;DHT22;60055;41.884;12.534;2022-08-16T05:27:15;26.00;85.20
33414;DHT22;60055;41.884;12.534;2022-08-16T05:29:41;26.10;84.50
33414;DHT22;60055;41.884;12.534;2022-08-16T05:32:06;26.10;84.10
33414;DHT22;60055;41.884;12.534;2022-08-16T05:34:32;26.20;83.80
33414;DHT22;60055;41.884;12.534;2022-08-16T05:36:58;25.90;84.10
33414;DHT22;60055;41.884;12.534;2022-08-16T05:39:24;25.90;84.40
33414;DHT22;60055;41.884;12.534;2022-08-16T05:41:51;26.20;84.00
33414;DHT22;60055;41.884;12.534;2022-08-16T05:44:21;26.50;83.20
33414;DHT22;60055;41.884;12.534;2022-08-16T05:46:49;26.40;83.00
33414;DHT22;60055;41.884;12.534;2022-08-16T05:49:15;26.80;82.20
33414;DHT22;60055;41.884;12.534;2022-08-16T05:51:42;26.90;81.10
33414;DHT22;60055;41.884;12.534;2022-08-16T05:54:09;26.90;81.20
33414;DHT22;60055;41.884;12.534;2022-08-16T05:56:36;27.30;78.60
33414;DHT22;60055;41.884;12.534;2022-08-16T05:59:02;27.20;78.90
33414;DHT22;60055;41.884;12.534;2022-08-16T06:01:28;28.00;76.70
33414;DHT22;60055;41.884;12.534;2022-08-16T06:03:53;28.60;75.20
33414;DHT22;60055;41.884;12.534;2022-08-16T06:06:19;28.50;74.30
33414;DHT22;60055;41.884;12.534;2022-08-16T06:08:45;28.30;74.90
33414;DHT22;60055;41.884;12.534;2022-08-16T06:11:10;28.50;74.80
33414;DHT22;60055;41.884;12.534;2022-08-16T06:13:37;28.60;74.80
33414;DHT22;60055;41.884;12.534;2022-08-16T06:16:05;28.60;74.20
33414;DHT22;60055;41.884;12.534;2022-08-16T06:18:32;28.90;73.60
33414;DHT22;60055;41.884;12.534;2022-08-16T06:20:58;28.70;73.80
33414;DHT22;60055;41.884;12.534;2022-08-16T06:23:23;28.90;73.50
33414;DHT22;60055;41.884;12.534;2022-08-16T06:25:52;29.10;72.70
33414;DHT22;60055;41.884;12.534;2022-08-16T06:28:18;29.20;72.80
33414;DHT22;60055;41.884;12.534;2022-08-16T06:30:44;29.50;72.40
33414;DHT22;60055;41.884;12.534;2022-08-16T06:33:13;29.50;71.40
33414;DHT22;60055;41.884;12.534;2022-08-16T06:35:39;29.20;72.00
33414;DHT22;60055;41.884;12.534;2022-08-16T06:38:05;29.20;72.30
33414;DHT22;60055;41.884;12.534;2022-08-16T06:40:31;29.40;72.20
33414;DHT22;60055;41.884;12.534;2022-08-16T06:42:58;29.40;71.40
33414;DHT22;60055;41.884;12.534;2022-08-16T06:45:24;29.40;71.90
33414;DHT22;60055;41.884;12.534;2022-08-16T06:47:50;29.20;71.90
33414;DHT22;60055;41.884;12.534;2022-08-16T06:50:16;29.80;70.70
33414;DHT22;60055;41.884;12.534;2022-08-16T06:52:43;30.10;70.00
33414;DHT22;60055;41.884;12.534;2022-08-16T06:55:11;29.80;70.00
33414;DHT22;60055;41.884;12.534;2022-08-16T06:57:38;30.00;69.80
33414;DHT22;60055;41.884;12.534;2022-08-16T07:00:05;29.50;70.60
33414;DHT22;60055;41.884;12.534;2022-08-16T07:02:42;30.00;69.50
33414;DHT22;60055;41.884;12.534;2022-08-16T07:05:10;30.10;68.60
33414;DHT22;60055;41.884;12.534;2022-08-16T07:07:36;29.60;69.30
33414;DHT22;60055;41.884;12.534;2022-08-16T07:10:06;30.10;69.00
33414;DHT22;60055;41.884;12.534;2022-08-16T07:12:33;30.20;68.50
33414;DHT22;60055;41.884;12.534;2022-08-16T07:14:59;30.40;68.10
33414;DHT22;60055;41.884;12.534;2022-08-16T07:17:26;29.90;68.40
33414;DHT22;60055;41.884;12.534;2022-08-16T07:19:52;29.90;69.40
33414;DHT22;60055;41.884;12.534;2022-08-16T07:22:19;30.40;68.60
33414;DHT22;60055;41.884;12.534;2022-08-16T07:24:45;30.70;67.80
33414;DHT22;60055;41.884;12.534;2022-08-16T07:27:11;30.90;66.60
33414;DHT22;60055;41.884;12.534;2022-08-16T07:29:36;31.10;66.70
33414;DHT22;60055;41.884;12.534;2022-08-16T07:32:03;31.10;66.60
33414;DHT22;60055;41.884;12.534;2022-08-16T07:34:30;31.40;66.10
33414;DHT22;60055;41.884;12.534;2022-08-16T07:36:57;31.80;65.60
33414;DHT22;60055;41.884;12.534;2022-08-16T07:39:23;31.70;65.70
33414;DHT22;60055;41.884;12.534;2022-08-16T07:41:49;31.50;66.20
33414;DHT22;60055;41.884;12.534;2022-08-16T07:44:15;31.10;66.40
33414;DHT22;60055;41.884;12.534;2022-08-16T07:46:40;31.30;65.70
33414;DHT22;60055;41.884;12.534;2022-08-16T07:49:06;31.50;64.60
33414;DHT22;60055;41.884;12.534;2022-08-16T07:51:33;31.40;64.70
33414;DHT22;60055;41.884;12.534;2022-08-16T07:54:06;31.10;65.40
33414;DHT22;60055;41.884;12.534;2022-08-16T07:56:32;31.60;64.60
33414;DHT22;60055;41.884;12.534;2022-08-16T07:58:57;31.50;65.20
33414;DHT22;60055;41.884;12.534;2022-08-16T08:01:23;31.90;64.40
33414;DHT22;60055;41.884;12.534;2022-08-16T08:03:50;31.90;64.00
33414;DHT22;60055;41.884;12.534;2022-08-16T08:06:21;31.10;64.30
33414;DHT22;60055;41.884;12.534;2022-08-16T08:08:47;32.20;63.70
33414;DHT22;60055;41.884;12.534;2022-08-16T08:11:13;32.60;62.10
33414;DHT22;60055;41.884;12.534;2022-08-16T08:13:39;33.20;62.00
33414;DHT22;60055;41.884;12.534;2022-08-16T08:16:05;33.60;61.00
33414;DHT22;60055;41.884;12.534;2022-08-16T08:18:31;33.20;60.20
33414;DHT22;60055;41.884;12.534;2022-08-16T08:20:57;32.30;60.70
33414;DHT22;60055;41.884;12.534;2022-08-16T08:23:23;31.90;61.90
33414;DHT22;60055;41.884;12.534;2022-08-16T08:25:50;32.20;61.40
33414;DHT22;60055;41.884;12.534;2022-08-16T08:28:16;32.70;60.70
33414;DHT22;60055;41.884;12.534;2022-08-16T08:30:42;31.70;61.50
33414;DHT22;60055;41.884;12.534;2022-08-16T08:33:08;31.40;62.50
33414;DHT22;60055;41.884;12.534;2022-08-16T08:35:34;31.70;62.40
33414;DHT22;60055;41.884;12.534;2022-08-16T08:38:00;32.10;61.70
33414;DHT22;60055;41.884;12.534;2022-08-16T08:40:29;31.80;62.00
33414;DHT22;60055;41.884;12.534;2022-08-16T08:42:57;31.50;61.70
33414;DHT22;60055;41.884;12.534;2022-08-16T08:45:23;32.30;61.70
33414;DHT22;60055;41.884;12.534;2022-08-16T08:47:49;32.20;61.20
33414;DHT22;60055;41.884;12.534;2022-08-16T08:50:15;32.10;61.10
33414;DHT22;60055;41.884;12.534;2022-08-16T08:52:43;32.20;61.40
33414;DHT22;60055;41.884;12.534;2022-08-16T08:55:11;32.90;60.40
33414;DHT22;60055;41.884;12.534;2022-08-16T08:57:46;33.20;59.70
33414;DHT22;60055;41.884;12.534;2022-08-16T09:00:14;33.40;59.40
33414;DHT22;60055;41.884;12.534;2022-08-16T09:02:42;33.30;59.50
33414;DHT22;60055;41.884;12.534;2022-08-16T09:05:09;33.20;59.80
33414;DHT22;60055;41.884;12.534;2022-08-16T09:07:34;32.90;59.80
33414;DHT22;60055;41.884;12.534;2022-08-16T09:10:04;32.80;60.10
33414;DHT22;60055;41.884;12.534;2022-08-16T09:12:30;33.20;60.10
33414;DHT22;60055;41.884;12.534;2022-08-16T09:14:55;33.00;60.20
33414;DHT22;60055;41.884;12.534;2022-08-16T09:17:21;32.80;60.30
33414;DHT22;60055;41.884;12.534;2022-08-16T09:19:47;32.60;60.50
33414;DHT22;60055;41.884;12.534;2022-08-16T09:22:12;32.60;60.80
33414;DHT22;60055;41.884;12.534;2022-08-16T09:24:38;32.80;59.70
33414;DHT22;60055;41.884;12.534;2022-08-16T09:27:04;33.00;59.10
33414;DHT22;60055;41.884;12.534;2022-08-16T09:29:30;33.40;58.70
33414;DHT22;60055;41.884;12.534;2022-08-16T09:31:57;33.50;58.30
33414;DHT22;60055;41.884;12.534;2022-08-16T09:34:23;33.60;58.00
33414;DHT22;60055;41.884;12.534;2022-08-16T09:36:49;33.40;57.60
33414;DHT22;60055;41.884;12.534;2022-08-16T09:39:15;33.30;58.00
33414;DHT22;60055;41.884;12.534;2022-08-16T09:41:43;33.30;58.60
33414;DHT22;60055;41.884;12.534;2022-08-16T09:44:09;33.60;59.10
33414;DHT22;60055;41.884;12.534;2022-08-16T09:46:35;33.30;60.80
33414;DHT22;60055;41.884;12.534;2022-08-16T09:49:00;33.00;60.40
33414;DHT22;60055;41.884;12.534;2022-08-16T09:51:26;33.10;60.40
33414;DHT22;60055;41.884;12.534;2022-08-16T09:53:53;33.10;60.80
33414;DHT22;60055;41.884;12.534;2022-08-16T09:56:32;33.20;60.20
33414;DHT22;60055;41.884;12.534;2022-08-16T09:59:00;33.10;60.50
33414;DHT22;60055;41.884;12.534;2022-08-16T10:01:27;33.30;60.00
33414;DHT22;60055;41.884;12.534;2022-08-16T10:03:53;33.40;59.90
33414;DHT22;60055;41.884;12.534;2022-08-16T10:06:20;33.50;59.50
33414;DHT22;60055;41.884;12.534;2022-08-16T10:08:47;33.20;59.40
33414;DHT22;60055;41.884;12.534;2022-08-16T10:11:13;33.30;60.50
33414;DHT22;60055;41.884;12.534;2022-08-16T10:13:58;33.20;61.10
33414;DHT22;60055;41.884;12.534;2022-08-16T10:16:24;33.20;60.60
33414;DHT22;60055;41.884;12.534;2022-08-16T10:18:50;33.40;60.80
33414;DHT22;60055;41.884;12.534;2022-08-16T10:21:16;33.20;61.40
33414;DHT22;60055;41.884;12.534;2022-08-16T10:23:42;33.20;62.70
33414;DHT22;60055;41.884;12.534;2022-08-16T10:26:09;33.40;62.90
33414;DHT22;60055;41.884;12.534;2022-08-16T10:28:35;33.30;61.60
33414;DHT22;60055;41.884;12.534;2022-08-16T10:31:02;33.30;62.40
33414;DHT22;60055;41.884;12.534;2022-08-16T10:33:29;33.20;63.00
33414;DHT22;60055;41.884;12.534;2022-08-16T10:35:54;33.20;63.60
33414;DHT22;60055;41.884;12.534;2022-08-16T10:38:20;33.10;64.30
33414;DHT22;60055;41.884;12.534;2022-08-16T10:40:46;32.90;65.20
33414;DHT22;60055;41.884;12.534;2022-08-16T10:43:12;33.00;64.80
33414;DHT22;60055;41.884;12.534;2022-08-16T10:45:39;33.10;65.00
33414;DHT22;60055;41.884;12.534;2022-08-16T10:48:08;33.20;64.50
33414;DHT22;60055;41.884;12.534;2022-08-16T10:50:35;33.10;64.30
33414;DHT22;60055;41.884;12.534;2022-08-16T10:53:02;33.00;63.90
33414;DHT22;60055;41.884;12.534;2022-08-16T10:55:32;33.00;64.90
33414;DHT22;60055;41.884;12.534;2022-08-16T10:57:58;32.90;66.00
33414;DHT22;60055;41.884;12.534;2022-08-16T11:00:27;32.90;66.30
33414;DHT22;60055;41.884;12.534;2022-08-16T11:02:52;32.90;65.30
33414;DHT22;60055;41.884;12.534;2022-08-16T11:05:18;33.00;65.50
33414;DHT22;60055;41.884;12.534;2022-08-16T11:07:49;32.90;66.10
33414;DHT22;60055;41.884;12.534;2022-08-16T11:10:18;33.00;66.60
33414;DHT22;60055;41.884;12.534;2022-08-16T11:12:44;33.20;66.10
33414;DHT22;60055;41.884;12.534;2022-08-16T11:15:10;33.30;65.50
33414;DHT22;60055;41.884;12.534;2022-08-16T11:17:36;33.20;64.50
33414;DHT22;60055;41.884;12.534;2022-08-16T11:20:06;33.10;64.00
33414;DHT22;60055;41.884;12.534;2022-08-16T11:22:35;33.10;63.70
33414;DHT22;60055;41.884;12.534;2022-08-16T11:25:02;33.20;64.00
33414;DHT22;60055;41.884;12.534;2022-08-16T11:27:27;33.30;63.80
33414;DHT22;60055;41.884;12.534;2022-08-16T11:29:54;33.30;63.50
33414;DHT22;60055;41.884;12.534;2022-08-16T11:32:25;33.40;64.50
33414;DHT22;60055;41.884;12.534;2022-08-16T11:34:51;33.20;66.20
33414;DHT22;60055;41.884;12.534;2022-08-16T11:37:17;33.10;66.00
33414;DHT22;60055;41.884;12.534;2022-08-16T11:39:42;32.80;65.80
33414;DHT22;60055;41.884;12.534;2022-08-16T11:42:08;33.00;65.60
33414;DHT22;60055;41.884;12.534;2022-08-16T11:44:33;33.10;67.00
33414;DHT22;60055;41.884;12.534;2022-08-16T11:47:02;33.30;66.90
33414;DHT22;60055;41.884;12.534;2022-08-16T11:49:28;33.30;64.70
33414;DHT22;60055;41.884;12.534;2022-08-16T11:51:54;33.20;66.50
33414;DHT22;60055;41.884;12.534;2022-08-16T11:54:20;33.50;67.90
33414;DHT22;60055;41.884;12.534;2022-08-16T11:56:46;33.50;68.60
33414;DHT22;60055;41.884;12.534;2022-08-16T11:59:11;33.20;69.80
33414;DHT22;60055;41.884;12.534;2022-08-16T12:01:37;33.20;69.80
33414;DHT22;60055;41.884;12.534;2022-08-16T12:04:03;33.30;69.40
33414;DHT22;60055;41.884;12.534;2022-08-16T12:06:28;33.40;69.00
33414;DHT22;60055;41.884;12.534;2022-08-16T12:08:55;33.50;69.70
33414;DHT22;60055;41.884;12.534;2022-08-16T12:11:25;33.50;71.30
33414;DHT22;60055;41.884;12.534;2022-08-16T12:13:51;33.70;71.10
33414;DHT22;60055;41.884;12.534;2022-08-16T12:16:18;33.60;71.70
33414;DHT22;60055;41.884;12.534;2022-08-16T12:18:45;33.50;73.00
33414;DHT22;60055;41.884;12.534;2022-08-16T12:21:11;33.60;74.10
33414;DHT22;60055;41.884;12.534;2022-08-16T12:23:36;33.50;73.80
33414;DHT22;60055;41.884;12.534;2022-08-16T12:26:02;33.20;75.00
33414;DHT22;60055;41.884;12.534;2022-08-16T12:28:28;32.90;77.40
33414;DHT22;60055;41.884;12.534;2022-08-16T12:30:56;32.70;78.70
33414;DHT22;60055;41.884;12.534;2022-08-16T12:33:21;32.80;79.50
33414;DHT22;60055;41.884;12.534;2022-08-16T12:35:48;32.80;79.80
33414;DHT22;60055;41.884;12.534;2022-08-16T12:38:14;32.80;80.20
33414;DHT22;60055;41.884;12.534;2022-08-16T12:40:43;33.10;80.80
33414;DHT22;60055;41.884;12.534;2022-08-16T12:43:11;32.90;81.30
33414;DHT22;60055;41.884;12.534;2022-08-16T12:45:56;32.90;82.20
33414;DHT22;60055;41.884;12.534;2022-08-16T12:48:26;33.30;81.10
33414;DHT22;60055;41.884;12.534;2022-08-16T12:51:13;33.50;81.10
33414;DHT22;60055;41.884;12.534;2022-08-16T12:53:40;33.80;80.70
33414;DHT22;60055;41.884;12.534;2022-08-16T12:56:07;33.80;80.20
33414;DHT22;60055;41.884;12.534;2022-08-16T12:58:32;34.00;79.80
33414;DHT22;60055;41.884;12.534;2022-08-16T13:00:59;34.10;79.90
33414;DHT22;60055;41.884;12.534;2022-08-16T13:03:25;33.90;79.70
33414;DHT22;60055;41.884;12.534;2022-08-16T13:05:52;33.90;79.70
33414;DHT22;60055;41.884;12.534;2022-08-16T13:08:19;33.80;79.80
33414;DHT22;60055;41.884;12.534;2022-08-16T13:10:46;33.80;79.70
33414;DHT22;60055;41.884;12.534;2022-08-16T13:13:15;34.10;79.10
33414;DHT22;60055;41.884;12.534;2022-08-16T13:15:50;33.90;79.80
33414;DHT22;60055;41.884;12.534;2022-08-16T13:18:16;33.90;79.50
33414;DHT22;60055;41.884;12.534;2022-08-16T13:20:42;33.90;79.10
33414;DHT22;60055;41.884;12.534;2022-08-16T13:23:09;33.90;78.60
33414;DHT22;60055;41.884;12.534;2022-08-16T13:25:37;34.00;78.80
33414;DHT22;60055;41.884;12.534;2022-08-16T13:28:04;33.90;79.10
33414;DHT22;60055;41.884;12.534;2022-08-16T13:30:34;34.00;78.70
33414;DHT22;60055;41.884;12.534;2022-08-16T13:33:00;34.00;77.30
33414;DHT22;60055;41.884;12.534;2022-08-16T13:35:26;33.90;77.60
33414;DHT22;60055;41.884;12.534;2022-08-16T13:37:52;34.10;77.40
33414;DHT22;60055;41.884;12.534;2022-08-16T13:40:18;33.90;77.20
33414;DHT22;60055;41.884;12.534;2022-08-16T13:42:46;34.10;76.70
33414;DHT22;60055;41.884;12.534;2022-08-16T13:45:13;34.00;78.30
33414;DHT22;60055;41.884;12.534;2022-08-16T13:47:39;34.20;78.30
33414;DHT22;60055;41.884;12.534;2022-08-16T13:50:07;34.20;78.20
33414;DHT22;60055;41.884;12.534;2022-08-16T13:52:33;34.30;78.00
33414;DHT22;60055;41.884;12.534;2022-08-16T13:54:59;34.10;78.00
33414;DHT22;60055;41.884;12.534;2022-08-16T13:57:25;33.90;78.20
33414;DHT22;60055;41.884;12.534;2022-08-16T13:59:51;34.00;78.20
33414;DHT22;60055;41.884;12.534;2022-08-16T14:02:17;34.00;78.40
33414;DHT22;60055;41.884;12.534;2022-08-16T14:04:42;34.10;76.50
33414;DHT22;60055;41.884;12.534;2022-08-16T14:07:11;33.80;77.00
33414;DHT22;60055;41.884;12.534;2022-08-16T14:09:40;33.80;77.40
33414;DHT22;60055;41.884;12.534;2022-08-16T14:12:17;33.80;77.60
33414;DHT22;60055;41.884;12.534;2022-08-16T14:14:43;33.80;77.70
33414;DHT22;60055;41.884;12.534;2022-08-16T14:17:09;33.60;77.00
33414;DHT22;60055;41.884;12.534;2022-08-16T14:19:34;33.90;77.30
33414;DHT22;60055;41.884;12.534;2022-08-16T14:22:00;33.50;78.50
33414;DHT22;60055;41.884;12.534;2022-08-16T14:24:26;33.50;79.50
33414;DHT22;60055;41.884;12.534;2022-08-16T14:26:52;33.50;80.00
33414;DHT22;60055;41.884;12.534;2022-08-16T14:29:19;33.40;79.10
33414;DHT22;60055;41.884;12.534;2022-08-16T14:31:45;33.10;79.20
33414;DHT22;60055;41.884;12.534;2022-08-16T14:34:10;33.50;78.10
33414;DHT22;60055;41.884;12.534;2022-08-16T14:36:36;33.50;77.50
33414;DHT22;60055;41.884;12.534;2022-08-16T14:39:02;33.50;77.90
33414;DHT22;60055;41.884;12.534;2022-08-16T14:41:28;33.70;78.60
33414;DHT22;60055;41.884;12.534;2022-08-16T14:43:55;33.50;79.20
33414;DHT22;60055;41.884;12.534;2022-08-16T14:46:21;33.60;79.30
33414;DHT22;60055;41.884;12.534;2022-08-16T14:48:47;33.50;78.60
33414;DHT22;60055;41.884;12.534;2022-08-16T14:51:13;33.10;78.80
33414;DHT22;60055;41.884;12.534;2022-08-16T14:53:41;33.00;79.20
33414;DHT22;60055;41.884;12.534;2022-08-16T14:56:07;33.00;78.90
33414;DHT22;60055;41.884;12.534;2022-08-16T14:58:32;33.20;78.60
33414;DHT22;60055;41.884;12.534;2022-08-16T15:00:58;33.10;78.10
33414;DHT22;60055;41.884;12.534;2022-08-16T15:03:27;33.30;78.00
33414;DHT22;60055;41.884;12.534;2022-08-16T15:05:52;33.30;77.80
33414;DHT22;60055;41.884;12.534;2022-08-16T15:08:18;33.30;77.90
33414;DHT22;60055;41.884;12.534;2022-08-16T15:10:44;33.20;78.70
33414;DHT22;60055;41.884;12.534;2022-08-16T15:13:11;33.00;78.70
33414;DHT22;60055;41.884;12.534;2022-08-16T15:15:38;32.90;79.50
33414;DHT22;60055;41.884;12.534;2022-08-16T15:18:04;32.80;80.70
33414;DHT22;60055;41.884;12.534;2022-08-16T15:20:32;32.90;80.70